Аэропорт: Жуляны. Киев

ICAO: UKKK

METAR:
2019-07-23 18:30:00
UKKK 231830Z 34004MPS CAVOK 20/11 Q1013 R26/CLRD70 NOSIG
METAR:
2019-07-23 17:02:00
TAF UKKK 231702Z 2318/2418 33006MPS 6000 SCT010 BKN025 TEMPO 2318/2321 35007G12MPS 2100 -SHRA BKN007 SCT015CB PROB40 TEMPO 2318/2321 VRB11G16MPS 1200 TSRA BKN005 BKN015CB BECMG 2321/2322 3000 -RA BR BKN007 BKN010 TEMPO 2322/2418 36009G14MPS 1200 SHRA BKN005 SCT020CB PROB40 TEMPO 2410/2418 VRB11G17MPS 1000 TSRA BKN003 BKN015CB